20:42
Airports
History
Links
Donate
Help keep this website running!
PayPal
Bitcoin
This page is community maintained. The information is intended for PC simulator navigation or reference.
Always use approved charts for navigation.
RJTC
Tachikawa AB
Tachikawa AB (RJTC)
Tachikawa, Tokyo, Japan (190)
(C)
Lat/Lng:35° 42' 38.64" N / 139° 24' 11.46" E
35.710732 / 139.403183
Elevation:313'ft / 95mMSL
ID / ICAO:RJTC
Runways:1
Longest:01-19
Asphalt 1,207m / 3,960ft
Controlled:Yes
METAR06:41 GMT 2017-09-22
Altimeter: 30.03
Visibility: 6.2 statute miles
Wind: 4 knots (from 350°)
Temp: 20°c / 68°f
Humidity: 82.9%

METAR: RJTC 220641Z 35004KT 9999 FEW010 BKN020 BKN200 20/17 Q1017 RMK 2ST010 5SC020 6CI200 A3003

(Powered by phpweather)
Nearby VORs <50NM
Nearby NDBs
Runway 01 / 19
Dimensions:1207 x 45.1m 3960' x 148'ft
Surface:Asphalt
Edge Lights:Medium intensity
Runway 01 [A]Runway 19 [B]
Heading:000°TH 180°TH
Lat:
Lng:
35° 42' 19.2"N
139° 24' 11.25"E
35° 42' 58.07"N
139° 24' 11.67"E
ALS:RAILRAIL
User Notes and Comments
35° 42' 38.64" N / 139° 24' 11.46" E
Distance To
Airport ID:
Nearby Airports
(C) YOKOTA AB 4.0 NM
RJTY ( WX ) NW 310°
(C) Chofu 7.5 NM
RJTF ( WX ) ESE 111°
(C) IRUMA 9.1 NM
RJTJ ( WX ) N
(C) KASTNER AAF 13.6 NM
RJTR ( WX ) S 182°
(C) ATSUGI NAF 17.9 NM
RJTA ( WX ) S 171°
(C) Honda Airport 19.6 NM
RJT1 NNE 20°
(C) Tokyo Haneda Intl 24.6 NM
RJTT ( WX ) ESE 117°
VFR Chart
Flight Planning at SkyVector.com